Terminal Aerodrome Forecast
Issued by NWS

Home | Current Version | Previous Version | Text Only | Print | Product List | Glossary On
Versions: 1 2 3 4 5 6 7 8 9 10 11 12 13
000
FTUS45 KVEF 302337
TAFEED
TAF
KEED 302337Z 3100/3124 27030G40KT 6SM BLDU SCT250
     FM310200 32020G28KT P6SM FEW150
     FM310800 31012G20KT P6SM FEW150
     FM311800 36025G30KT P6SM FEW250=

USA.gov is the U.S. government's official web portal to all federal, state and local government web resources and services.